Aviation Digital Data Service (ADDS)

Output produced by METARs form (1558 UTC 16 April 2014)
found at http://aviationweather.gov/adds/metars/
 
KINT 161139Z 1612/1712 02011KT P6SM SKC 
     FM161330 04012G19KT P6SM SKC 
     FM161900 07009KT P6SM SKC